createdAt,value
2023-05-03T00:01:24.028Z,11.04
2023-05-03T00:03:53.195Z,11.60
2023-05-03T00:06:22.066Z,10.90
2023-05-03T00:08:49.766Z,11.14
2023-05-03T00:11:17.169Z,10.74
2023-05-03T00:13:45.954Z,10.93
2023-05-03T00:16:13.597Z,11.03
2023-05-03T00:18:41.046Z,10.67
2023-05-03T00:21:08.486Z,10.26
2023-05-03T00:23:35.909Z,10.11
2023-05-03T00:26:03.415Z,10.06
2023-05-03T00:28:31.023Z,10.43
2023-05-03T00:31:07.971Z,10.79
2023-05-03T00:33:35.567Z,10.32
2023-05-03T00:36:09.047Z,10.43
2023-05-03T00:38:36.546Z,10.50
2023-05-03T00:41:04.955Z,10.40
2023-05-03T00:43:32.637Z,10.22
2023-05-03T00:46:15.371Z,10.28
2023-05-03T00:48:44.781Z,10.19
2023-05-03T00:51:15.187Z,10.75
2023-05-03T00:53:43.101Z,10.58
2023-05-03T00:56:11.231Z,10.33
2023-05-03T00:58:40.511Z,10.12
2023-05-03T01:01:09.621Z,10.07
2023-05-03T01:03:41.687Z,10.89
2023-05-03T01:06:14.567Z,10.33
2023-05-03T01:08:48.028Z,10.51
2023-05-03T01:11:22.670Z,10.12
2023-05-03T01:13:55.984Z,10.12
2023-05-03T01:16:31.696Z,10.82
2023-05-03T01:19:05.493Z,10.70
2023-05-03T01:21:35.611Z,10.71
2023-05-03T01:24:09.681Z,10.82
2023-05-03T01:26:38.443Z,10.78
2023-05-03T01:29:06.274Z,11.16
2023-05-03T01:31:39.090Z,10.89
2023-05-03T01:34:19.268Z,10.69
2023-05-03T01:36:47.109Z,10.24
2023-05-03T01:39:20.718Z,10.32
2023-05-03T01:41:51.381Z,9.87
2023-05-03T01:44:20.341Z,9.62
2023-05-03T01:46:48.123Z,9.36
2023-05-03T01:49:16.091Z,10.13
2023-05-03T01:51:43.569Z,10.37
2023-05-03T01:54:11.223Z,10.07
2023-05-03T01:56:39.340Z,9.55
2023-05-03T01:59:08.100Z,9.85
2023-05-03T02:01:36.638Z,10.03
2023-05-03T02:04:04.114Z,9.88
2023-05-03T02:06:31.688Z,9.49
2023-05-03T02:08:59.135Z,9.62
2023-05-03T02:11:26.563Z,9.72
2023-05-03T02:13:54.015Z,9.83
2023-05-03T02:16:22.866Z,10.07
2023-05-03T02:18:51.846Z,9.60
2023-05-03T02:21:19.301Z,9.61
2023-05-03T02:23:46.933Z,9.25
2023-05-03T02:26:14.325Z,9.24
2023-05-03T02:28:41.891Z,8.78
2023-05-03T02:31:09.497Z,8.87
2023-05-03T02:33:38.265Z,8.81
2023-05-03T02:36:06.424Z,9.04
2023-05-03T02:38:34.010Z,8.83
2023-05-03T02:41:01.482Z,8.93
2023-05-03T02:43:28.887Z,9.56
2023-05-03T02:45:57.118Z,9.18
2023-05-03T02:48:24.558Z,9.32
2023-05-03T02:50:54.822Z,9.56
2023-05-03T02:53:22.269Z,9.49
2023-05-03T02:55:50.631Z,9.47
2023-05-03T02:58:18.091Z,9.21
2023-05-03T03:00:45.547Z,9.31
2023-05-03T03:03:13.017Z,9.30
2023-05-03T03:05:40.564Z,8.95
2023-05-03T03:08:09.297Z,9.12
2023-05-03T03:10:36.870Z,9.32
2023-05-03T03:13:04.328Z,9.06
2023-05-03T03:15:31.758Z,9.15
2023-05-03T03:17:59.189Z,9.48
2023-05-03T03:20:26.612Z,9.54
2023-05-03T03:22:54.121Z,9.15
2023-05-03T03:25:22.886Z,8.94
2023-05-03T03:27:50.404Z,9.08
2023-05-03T03:30:17.936Z,8.99
2023-05-03T03:32:45.371Z,9.07
2023-05-03T03:35:13.064Z,9.27
2023-05-03T03:37:40.674Z,9.54
2023-05-03T03:40:09.805Z,9.05
2023-05-03T03:42:38.669Z,9.02
2023-05-03T03:45:06.958Z,9.44
2023-05-03T03:47:34.392Z,9.60
2023-05-03T03:50:02.561Z,9.66
2023-05-03T03:52:30.688Z,9.79
2023-05-03T03:54:58.143Z,9.66
2023-05-03T03:57:29.693Z,9.77
2023-05-03T03:59:59.136Z,9.96
2023-05-03T04:02:26.957Z,10.00
2023-05-03T04:04:54.426Z,10.21
2023-05-03T04:07:22.147Z,9.83
2023-05-03T04:09:49.540Z,9.59
2023-05-03T04:12:16.935Z,9.70
2023-05-03T04:14:44.409Z,9.63
2023-05-03T04:17:13.211Z,9.76
2023-05-03T04:19:40.845Z,10.34
2023-05-03T04:22:08.278Z,10.57
2023-05-03T04:24:39.718Z,10.45
2023-05-03T04:27:08.824Z,10.22
2023-05-03T04:29:38.488Z,9.88
2023-05-03T04:32:08.395Z,9.69
2023-05-03T04:34:37.703Z,9.54
2023-05-03T04:37:05.272Z,10.05
2023-05-03T04:39:32.729Z,9.97
2023-05-03T04:42:00.169Z,9.41
2023-05-03T04:44:27.790Z,9.21
2023-05-03T04:46:55.234Z,9.94
2023-05-03T04:49:22.647Z,9.64
2023-05-03T04:51:51.374Z,9.85
2023-05-03T04:54:18.795Z,10.11
2023-05-03T04:56:46.347Z,10.26
2023-05-03T04:59:13.749Z,10.64
2023-05-03T05:01:41.368Z,10.48
2023-05-03T05:04:09.123Z,10.82
2023-05-03T05:06:36.823Z,11.11
2023-05-03T05:09:08.249Z,10.85
2023-05-03T05:11:35.751Z,10.78
2023-05-03T05:14:03.496Z,10.81
2023-05-03T05:16:31.427Z,11.29
2023-05-03T05:18:59.046Z,11.44
2023-05-03T05:21:26.955Z,11.59
2023-05-03T05:23:54.374Z,11.69
2023-05-03T05:26:23.188Z,11.52
2023-05-03T05:28:50.830Z,11.71
2023-05-03T05:31:18.517Z,11.12
2023-05-03T05:33:46.596Z,11.32
2023-05-03T05:36:14.753Z,12.27
2023-05-03T05:38:42.759Z,12.09
2023-05-03T05:41:10.308Z,11.97
2023-05-03T05:43:39.031Z,12.91
2023-05-03T05:46:06.460Z,12.78
2023-05-03T05:48:33.862Z,12.05
2023-05-03T05:51:01.340Z,13.07
2023-05-03T05:53:28.787Z,13.90
2023-05-03T05:55:56.490Z,13.54
2023-05-03T05:58:23.952Z,12.78
2023-05-03T06:00:52.863Z,13.53
2023-05-03T06:03:20.528Z,12.58
2023-05-03T06:05:48.279Z,11.52
2023-05-03T06:08:15.787Z,12.72
2023-05-03T06:10:43.324Z,12.00
2023-05-03T06:13:10.825Z,12.22
2023-05-03T06:15:38.317Z,11.74
2023-05-03T06:18:07.426Z,13.24
2023-05-03T06:20:34.918Z,12.74
2023-05-03T06:23:02.423Z,12.20
2023-05-03T06:25:29.817Z,11.83
2023-05-03T06:27:57.234Z,12.07
2023-05-03T06:30:25.690Z,12.25
2023-05-03T06:32:53.276Z,12.19
2023-05-03T06:35:22.288Z,11.80
2023-05-03T06:37:49.945Z,11.76
2023-05-03T06:40:18.166Z,11.72
2023-05-03T06:42:45.755Z,11.97
2023-05-03T06:45:13.155Z,10.83
2023-05-03T06:47:42.797Z,10.14
2023-05-03T06:50:11.286Z,10.59
2023-05-03T06:52:40.039Z,10.54
2023-05-03T06:55:09.415Z,10.06
2023-05-03T06:57:36.830Z,10.55
2023-05-03T07:00:07.357Z,10.79
2023-05-03T07:02:34.950Z,10.55
2023-05-03T07:05:03.082Z,12.18
2023-05-03T07:07:30.844Z,10.85
2023-05-03T07:09:59.724Z,11.04
2023-05-03T07:12:28.398Z,10.97
2023-05-03T07:14:56.643Z,11.32
2023-05-03T07:17:24.569Z,11.01
2023-05-03T07:19:52.513Z,11.46
2023-05-03T07:22:21.223Z,11.52
2023-05-03T07:24:48.675Z,10.62
2023-05-03T07:27:17.428Z,10.45
2023-05-03T07:29:44.832Z,10.86
2023-05-03T07:32:12.889Z,11.53
2023-05-03T07:34:40.454Z,11.04
2023-05-03T07:37:07.884Z,10.93
2023-05-03T07:39:36.370Z,12.09
2023-05-03T07:42:03.816Z,11.29
2023-05-03T07:44:32.854Z,11.55
2023-05-03T07:47:00.291Z,12.19
2023-05-03T07:49:27.713Z,12.27
2023-05-03T07:51:55.124Z,12.02
2023-05-03T07:54:22.508Z,13.01
2023-05-03T07:56:49.919Z,12.89
2023-05-03T07:59:17.316Z,12.84
2023-05-03T08:01:46.300Z,12.23
2023-05-03T08:04:13.992Z,13.23
2023-05-03T08:06:43.029Z,13.53
2023-05-03T08:09:11.582Z,12.06
2023-05-03T08:11:39.806Z,11.84
2023-05-03T08:14:08.435Z,12.52
2023-05-03T08:16:35.882Z,11.50
2023-05-03T08:19:05.005Z,11.13
2023-05-03T08:21:33.374Z,12.20
2023-05-03T08:24:02.070Z,11.98
2023-05-03T08:26:29.914Z,12.91
2023-05-03T08:28:57.387Z,12.79
2023-05-03T08:31:24.831Z,12.82
2023-05-03T08:33:52.301Z,13.23
2023-05-03T08:36:21.248Z,13.98
2023-05-03T08:38:48.653Z,13.81
2023-05-03T08:41:23.451Z,12.72
2023-05-03T08:43:54.248Z,12.93
2023-05-03T08:46:22.312Z,13.34
2023-05-03T08:48:50.917Z,13.27
2023-05-03T08:51:18.705Z,13.17
2023-05-03T08:53:47.475Z,12.77
2023-05-03T08:56:21.232Z,12.76
2023-05-03T08:58:48.632Z,12.99
2023-05-03T09:03:57.750Z,12.84
2023-05-03T09:06:27.157Z,13.64
2023-05-03T09:08:56.239Z,13.45
2023-05-03T09:11:24.937Z,13.05
2023-05-03T09:13:53.388Z,13.51
2023-05-03T09:16:27.270Z,13.89
2023-05-03T09:18:59.064Z,14.44
2023-05-03T09:21:26.650Z,14.93
2023-05-03T09:23:55.996Z,14.42
2023-05-03T09:26:30.899Z,15.35
2023-05-03T09:28:59.507Z,15.54
2023-05-03T09:31:27.222Z,15.24
2023-05-03T09:33:54.837Z,15.15
2023-05-03T09:36:22.397Z,13.12
2023-05-03T09:38:50.308Z,14.96
2023-05-03T09:41:28.201Z,14.38
2023-05-03T09:43:56.816Z,14.23
2023-05-03T09:46:26.167Z,14.78
2023-05-03T09:48:56.852Z,15.85
2023-05-03T09:51:25.049Z,15.82
2023-05-03T09:53:53.241Z,14.79
2023-05-03T09:56:26.461Z,13.54
2023-05-03T09:58:54.904Z,13.19
2023-05-03T10:01:25.195Z,14.51
2023-05-03T10:03:54.368Z,14.12
2023-05-03T10:06:26.733Z,14.05
2023-05-03T10:08:58.397Z,14.08
2023-05-03T10:11:27.903Z,14.34
2023-05-03T10:13:56.075Z,13.80
2023-05-03T10:16:28.815Z,14.26
2023-05-03T10:19:05.483Z,13.48
2023-05-03T10:21:43.194Z,13.63
2023-05-03T10:24:12.631Z,14.69
2023-05-03T10:26:43.003Z,14.48
2023-05-03T10:29:49.132Z,14.37
2023-05-03T10:32:30.972Z,14.07
2023-05-03T10:35:00.664Z,14.31
2023-05-03T10:37:31.329Z,13.33
2023-05-03T10:40:07.231Z,13.08
2023-05-03T10:42:36.275Z,13.07
2023-05-03T10:45:04.490Z,14.04
2023-05-03T10:47:32.144Z,13.29
2023-05-03T10:50:27.316Z,13.50
2023-05-03T10:52:54.803Z,13.55
2023-05-03T10:55:24.740Z,15.24
2023-05-03T10:57:57.640Z,15.85
2023-05-03T11:00:31.100Z,14.25
2023-05-03T11:03:31.253Z,14.82
2023-05-03T11:05:59.184Z,14.10
2023-05-03T11:08:27.908Z,14.11
2023-05-03T11:11:00.095Z,14.40
2023-05-03T11:13:29.232Z,14.56
2023-05-03T11:15:57.310Z,13.89
2023-05-03T11:18:27.112Z,13.26
2023-05-03T11:20:54.940Z,14.51
2023-05-03T11:23:26.918Z,14.26
2023-05-03T11:25:54.432Z,13.80
2023-05-03T11:28:21.905Z,13.85
2023-05-03T11:30:51.369Z,13.27
2023-05-03T11:33:18.838Z,13.75
2023-05-03T11:35:46.861Z,13.32
2023-05-03T11:38:14.297Z,14.40
2023-05-03T11:40:41.834Z,14.63
2023-05-03T11:43:09.341Z,15.58
2023-05-03T11:45:42.286Z,15.74
2023-05-03T11:48:13.060Z,15.40
2023-05-03T11:50:48.601Z,16.09
2023-05-03T11:53:16.989Z,16.21
2023-05-03T11:55:48.002Z,16.41
2023-05-03T11:58:17.577Z,16.52
2023-05-03T12:00:46.523Z,15.89
2023-05-03T12:03:19.846Z,16.18
2023-05-03T12:05:48.465Z,14.86
2023-05-03T12:08:20.643Z,14.82
2023-05-03T12:10:50.902Z,15.37
2023-05-03T12:13:30.018Z,15.65
2023-05-03T12:18:51.709Z,15.41
2023-05-03T12:23:55.489Z,15.32
2023-05-03T12:26:25.246Z,16.44
2023-05-03T12:28:56.073Z,15.32
2023-05-03T12:31:24.466Z,15.65
2023-05-03T12:36:26.136Z,15.96
2023-05-03T12:38:56.592Z,15.20
2023-05-03T12:42:04.737Z,14.95
2023-05-03T12:44:16.650Z,14.78
2023-05-03T12:46:45.531Z,14.98
2023-05-03T12:49:15.626Z,15.48
2023-05-03T12:51:43.641Z,15.36
2023-05-03T12:54:11.697Z,15.29
2023-05-03T12:56:40.884Z,15.71
2023-05-03T13:02:40.928Z,16.78
2023-05-03T13:07:00.146Z,15.41
2023-05-03T13:09:38.631Z,16.23
2023-05-03T13:12:17.970Z,16.73
2023-05-03T13:14:45.568Z,15.80
2023-05-03T13:17:13.382Z,16.20
2023-05-03T13:19:43.562Z,15.96
2023-05-03T13:22:11.336Z,14.93
2023-05-03T13:24:38.834Z,14.93
2023-05-03T13:27:06.514Z,15.31
2023-05-03T13:29:34.583Z,16.30
2023-05-03T13:32:02.098Z,16.19
2023-05-03T13:34:30.032Z,15.06
2023-05-03T13:36:58.819Z,15.05
2023-05-03T13:39:26.489Z,15.17
2023-05-03T13:41:53.927Z,15.88
2023-05-03T13:44:25.177Z,16.25
2023-05-03T13:46:53.471Z,16.61
2023-05-03T13:49:21.172Z,15.50
2023-05-03T13:51:48.611Z,15.52
2023-05-03T13:54:17.400Z,16.30
2023-05-03T13:56:44.854Z,16.06
2023-05-03T13:59:13.822Z,15.16
2023-05-03T14:01:43.178Z,15.58
2023-05-03T14:04:11.234Z,15.99
2023-05-03T14:06:41.136Z,16.71
2023-05-03T14:09:09.520Z,15.82
2023-05-03T14:11:39.818Z,16.49
2023-05-03T14:14:07.412Z,16.64
2023-05-03T14:19:05.253Z,16.80
2023-05-03T14:21:32.837Z,15.83
2023-05-03T14:24:00.348Z,15.96
2023-05-03T14:26:29.313Z,15.96
2023-05-03T14:28:59.675Z,16.41
2023-05-03T14:31:27.152Z,16.65
2023-05-03T14:33:55.003Z,16.57
2023-05-03T14:36:23.081Z,16.17
2023-05-03T14:38:50.649Z,16.54
2023-05-03T14:41:18.059Z,16.34
2023-05-03T14:43:45.498Z,15.70
2023-05-03T14:46:14.255Z,15.73
2023-05-03T14:48:41.807Z,16.20
2023-05-03T14:51:09.217Z,15.59
2023-05-03T14:53:36.649Z,16.32
2023-05-03T14:56:04.286Z,16.87
2023-05-03T14:58:32.984Z,17.14
2023-05-03T15:01:01.114Z,15.98
2023-05-03T15:03:30.534Z,16.20
2023-05-03T15:05:57.979Z,17.53
2023-05-03T15:08:25.385Z,16.90
2023-05-03T15:10:52.852Z,17.40
2023-05-03T15:13:20.547Z,17.22
2023-05-03T15:15:48.078Z,17.18
2023-05-03T15:18:18.626Z,17.46
2023-05-03T15:20:47.765Z,16.97
2023-05-03T15:23:15.267Z,17.11
2023-05-03T15:25:42.719Z,17.76
2023-05-03T15:28:10.137Z,17.59
2023-05-03T15:30:37.548Z,16.54
2023-05-03T15:33:05.378Z,16.30
2023-05-03T15:35:32.863Z,16.50
2023-05-03T15:38:01.714Z,15.92
2023-05-03T15:40:29.534Z,16.22
2023-05-03T15:42:56.975Z,16.59
2023-05-03T15:45:26.135Z,16.52
2023-05-03T15:47:53.652Z,16.61
2023-05-03T15:50:21.375Z,16.80
2023-05-03T15:52:48.822Z,17.68
2023-05-03T15:55:18.974Z,17.75
2023-05-03T15:57:46.519Z,17.92
2023-05-03T16:00:17.625Z,17.80
2023-05-03T16:02:45.073Z,17.76
2023-05-03T16:05:12.662Z,17.40
2023-05-03T16:07:40.359Z,16.70
2023-05-03T16:10:10.080Z,16.95
2023-05-03T16:12:38.935Z,17.68
2023-05-03T16:15:07.941Z,16.61
2023-05-03T16:17:36.386Z,16.08
2023-05-03T16:20:05.773Z,15.81
2023-05-03T16:22:33.413Z,16.71
2023-05-03T16:25:00.886Z,17.34
2023-05-03T16:27:28.281Z,17.44
2023-05-03T16:29:58.914Z,17.49
2023-05-03T16:32:26.714Z,17.78
2023-05-03T16:34:54.447Z,17.71
2023-05-03T16:37:22.427Z,17.03
2023-05-03T16:39:49.860Z,17.26
2023-05-03T16:42:18.152Z,17.37
2023-05-03T16:44:46.523Z,17.00
2023-05-03T16:47:15.716Z,16.92
2023-05-03T16:49:43.409Z,15.60
2023-05-03T16:52:11.284Z,15.99
2023-05-03T16:54:38.776Z,16.42
2023-05-03T16:57:06.636Z,15.90
2023-05-03T16:59:34.143Z,16.44
2023-05-03T17:02:01.641Z,16.46
2023-05-03T17:04:30.458Z,15.90
2023-05-03T17:06:57.865Z,16.00
2023-05-03T17:09:25.277Z,15.98
2023-05-03T17:11:52.650Z,16.54
2023-05-03T17:14:20.148Z,16.08
2023-05-03T17:16:49.018Z,15.89
2023-05-03T17:19:18.086Z,15.42
2023-05-03T17:21:46.766Z,15.73
2023-05-03T17:24:14.135Z,16.31
2023-05-03T17:26:41.575Z,15.77
2023-05-03T17:29:09.003Z,16.62
2023-05-03T17:31:36.491Z,15.57
2023-05-03T17:34:03.961Z,15.79
2023-05-03T17:36:31.648Z,15.82
2023-05-03T17:39:00.396Z,15.79
2023-05-03T17:41:27.797Z,15.48
2023-05-03T17:43:55.186Z,15.17
2023-05-03T17:46:22.701Z,15.32
2023-05-03T17:48:50.111Z,15.34
2023-05-03T17:51:17.632Z,15.88
2023-05-03T17:53:45.046Z,16.03
2023-05-03T17:56:18.059Z,15.74
2023-05-03T17:58:46.516Z,15.18
2023-05-03T18:01:15.766Z,14.98
2023-05-03T18:03:43.787Z,15.64
2023-05-03T18:06:13.197Z,15.32
2023-05-03T18:08:41.354Z,15.84
2023-05-03T18:11:09.282Z,15.74
2023-05-03T18:13:38.100Z,15.77
2023-05-03T18:16:07.455Z,15.43
2023-05-03T18:18:35.076Z,15.71
2023-05-03T18:21:04.423Z,16.12
2023-05-03T18:23:32.714Z,15.31
2023-05-03T18:26:00.720Z,15.77
2023-05-03T18:28:28.256Z,15.99
2023-05-03T18:30:57.492Z,15.85
2023-05-03T18:33:25.207Z,15.79
2023-05-03T18:35:53.536Z,15.44
2023-05-03T18:38:21.773Z,15.08
2023-05-03T18:40:50.481Z,14.92
2023-05-03T18:46:52.751Z,14.88
2023-05-03T18:49:20.244Z,14.99
2023-05-03T18:51:47.767Z,15.05
2023-05-03T18:54:15.154Z,15.55
2023-05-03T18:56:42.825Z,15.68
2023-05-03T18:59:10.714Z,15.55
2023-05-03T19:01:38.404Z,15.53
2023-05-03T19:04:07.950Z,15.58
2023-05-03T19:06:35.490Z,15.32
2023-05-03T19:09:03.386Z,15.72
2023-05-03T19:11:30.828Z,15.24
2023-05-03T19:13:58.247Z,15.34
2023-05-03T19:21:20.447Z,15.79
2023-05-03T19:23:48.211Z,15.79
2023-05-03T19:26:15.637Z,15.41
2023-05-03T19:29:00.630Z,15.62
2023-05-03T19:31:28.157Z,15.77
2023-05-03T19:33:55.595Z,15.66
2023-05-03T19:36:24.385Z,15.51
2023-05-03T19:38:51.827Z,15.66
2023-05-03T19:41:19.441Z,15.57
2023-05-03T19:43:46.910Z,15.47
2023-05-03T19:46:16.224Z,15.56
2023-05-03T19:48:49.866Z,15.71
2023-05-03T19:51:18.311Z,15.50
2023-05-03T19:53:48.935Z,15.42
2023-05-03T19:56:18.336Z,15.49
2023-05-03T19:58:46.281Z,15.47
2023-05-03T20:01:13.750Z,15.55
2023-05-03T20:04:02.943Z,15.43
2023-05-03T20:07:11.655Z,15.54
2023-05-03T20:09:40.427Z,15.37
2023-05-03T20:12:08.591Z,14.96
2023-05-03T20:14:36.131Z,15.04
2023-05-03T20:17:04.072Z,14.92
2023-05-03T20:19:31.706Z,14.80
2023-05-03T20:23:38.815Z,14.81
2023-05-03T20:26:05.520Z,14.71
2023-05-03T20:28:35.007Z,14.63
2023-05-03T20:31:02.857Z,14.50
2023-05-03T20:33:30.254Z,14.55
2023-05-03T20:35:57.708Z,13.63
2023-05-03T20:38:25.140Z,14.08
2023-05-03T20:40:52.636Z,14.46
2023-05-03T20:43:21.422Z,14.42
2023-05-03T20:45:48.908Z,14.75
2023-05-03T20:48:16.475Z,14.40
2023-05-03T20:50:44.386Z,13.97
2023-05-03T20:53:11.819Z,14.08
2023-05-03T20:55:39.452Z,14.20
2023-05-03T20:58:06.834Z,13.99
2023-05-03T21:00:35.566Z,14.00
2023-05-03T21:03:03.485Z,14.02
2023-05-03T21:05:30.999Z,14.21
2023-05-03T21:07:58.394Z,14.18
2023-05-03T21:10:26.026Z,14.06
2023-05-03T21:12:53.435Z,13.98
2023-05-03T21:15:20.908Z,13.78
2023-05-03T21:17:49.764Z,13.40
2023-05-03T21:20:17.450Z,13.82
2023-05-03T21:22:44.998Z,13.99
2023-05-03T21:25:12.426Z,13.98
2023-05-03T21:27:39.813Z,14.24
2023-05-03T21:30:08.791Z,13.80
2023-05-03T21:32:36.292Z,14.14
2023-05-03T21:35:05.682Z,14.23
2023-05-03T21:37:33.140Z,14.11
2023-05-03T21:40:02.511Z,14.22
2023-05-03T21:42:30.462Z,13.95
2023-05-03T21:44:57.872Z,13.63
2023-05-03T21:47:25.442Z,13.59
2023-05-03T21:49:52.875Z,13.50
2023-05-03T21:52:21.598Z,13.87
2023-05-03T21:54:49.080Z,13.77
2023-05-03T21:57:18.813Z,13.87
2023-05-03T21:59:46.693Z,13.81
2023-05-03T22:02:14.146Z,13.80
2023-05-03T22:04:41.519Z,13.99
2023-05-03T22:07:09.149Z,13.31
2023-05-03T22:09:37.856Z,13.65
2023-05-03T22:12:15.538Z,13.46
2023-05-03T22:14:49.622Z,13.56
2023-05-03T22:17:17.040Z,14.12
2023-05-03T22:19:44.495Z,13.46
2023-05-03T22:22:12.078Z,13.75
2023-05-03T22:24:41.599Z,13.83
2023-05-03T22:27:09.042Z,14.11
2023-05-03T22:29:36.479Z,13.74
2023-05-03T22:32:04.129Z,13.03
2023-05-03T22:34:31.607Z,12.06
2023-05-03T22:36:59.035Z,12.34
2023-05-03T22:39:26.713Z,11.97
2023-05-03T22:41:55.446Z,11.83
2023-05-03T22:44:22.850Z,12.19
2023-05-03T22:46:50.433Z,11.81
2023-05-03T22:49:17.858Z,11.48
2023-05-03T22:51:45.440Z,11.82
2023-05-03T22:54:12.877Z,11.25
2023-05-03T22:56:40.288Z,10.67
2023-05-03T22:59:09.139Z,10.87
2023-05-03T23:01:37.473Z,10.96
2023-05-03T23:04:05.451Z,11.21
2023-05-03T23:06:32.912Z,11.85
2023-05-03T23:09:01.019Z,10.91
2023-05-03T23:11:28.427Z,10.84
2023-05-03T23:13:55.811Z,11.30
2023-05-03T23:16:24.897Z,11.19
2023-05-03T23:18:55.442Z,11.39
2023-05-03T23:21:23.208Z,11.40
2023-05-03T23:23:50.611Z,11.38
2023-05-03T23:26:18.044Z,10.82
2023-05-03T23:28:46.182Z,11.29
2023-05-03T23:31:14.102Z,11.81
2023-05-03T23:33:43.181Z,11.67
2023-05-03T23:36:11.306Z,11.31
2023-05-03T23:38:38.840Z,11.22
2023-05-03T23:41:06.411Z,10.44
2023-05-03T23:43:33.793Z,10.93
2023-05-03T23:46:01.293Z,10.55
2023-05-03T23:48:28.696Z,10.09
2023-05-03T23:50:57.407Z,10.18
2023-05-03T23:53:24.807Z,10.69
2023-05-03T23:55:52.475Z,10.50
2023-05-03T23:58:19.877Z,11.01
